createdAt,value
2018-02-03T00:01:06.640Z,96821.03
2018-02-03T00:02:43.071Z,96851.37
2018-02-03T00:04:19.420Z,96870.88
2018-02-03T00:05:56.137Z,96900.30
2018-02-03T00:07:32.555Z,96903.77
2018-02-03T00:09:09.175Z,96895.60
2018-02-03T00:10:45.679Z,96850.98
2018-02-03T00:12:22.405Z,96823.67
2018-02-03T00:13:59.601Z,96788.60
2018-02-03T00:15:35.922Z,96770.41
2018-02-03T00:17:12.378Z,96724.89
2018-02-03T00:18:55.581Z,96695.47
2018-02-03T00:20:32.772Z,96705.47
2018-02-03T00:22:11.173Z,96756.53
2018-02-03T00:23:47.703Z,96794.19
2018-02-03T00:25:24.413Z,96848.80
2018-02-03T00:27:00.783Z,96880.39
2018-02-03T00:28:37.193Z,96877.02
2018-02-03T00:30:17.097Z,96841.44
2018-02-03T00:31:53.954Z,96821.14
2018-02-03T00:33:31.284Z,96797.25
2018-02-03T00:35:08.643Z,96793.38
2018-02-03T00:36:44.973Z,96794.27
2018-02-03T00:38:22.561Z,96826.30
2018-02-03T00:39:58.965Z,96844.46
2018-02-03T00:41:36.755Z,96807.25
2018-02-03T00:43:13.922Z,96756.95
2018-02-03T00:44:51.181Z,96755.64
2018-02-03T00:46:27.598Z,96806.86
2018-02-03T00:48:05.037Z,96861.77
2018-02-03T00:49:41.814Z,96875.66
2018-02-03T00:51:18.298Z,96854.40
2018-02-03T00:52:54.609Z,96902.52
2018-02-03T00:54:31.129Z,96942.38
2018-02-03T00:56:08.160Z,96927.55
2018-02-03T00:57:44.621Z,96890.80
2018-02-03T00:59:22.561Z,96893.03
2018-02-03T01:00:59.035Z,96849.20
2018-02-03T01:02:35.914Z,96816.27
2018-02-03T01:04:13.158Z,96774.26
2018-02-03T01:05:50.490Z,96728.81
2018-02-03T01:07:27.207Z,96696.75
2018-02-03T01:09:04.229Z,96668.16
2018-02-03T01:10:41.497Z,96693.37
2018-02-03T01:12:18.696Z,96708.88
2018-02-03T01:13:56.308Z,96718.92
2018-02-03T01:15:33.578Z,96709.81
2018-02-03T01:17:10.058Z,96713.27
2018-02-03T01:18:46.957Z,96743.51
2018-02-03T01:20:23.654Z,96743.08
2018-02-03T01:22:00.133Z,96789.84
2018-02-03T01:23:37.472Z,96818.05
2018-02-03T01:25:14.255Z,96787.72
2018-02-03T01:26:51.161Z,96816.73
2018-02-03T01:28:27.475Z,96837.55
2018-02-03T01:30:05.643Z,96876.13
2018-02-03T01:31:42.076Z,96866.58
2018-02-03T01:33:18.448Z,96907.78
2018-02-03T01:34:54.808Z,96943.70
2018-02-03T01:36:31.970Z,97009.62
2018-02-03T01:38:08.994Z,97043.88
2018-02-03T01:39:45.301Z,97026.41
2018-02-03T01:41:21.800Z,96993.48
2018-02-03T01:42:58.127Z,97009.16
2018-02-03T01:44:34.808Z,96990.91
2018-02-03T01:46:11.236Z,96926.81
2018-02-03T01:47:54.545Z,96809.03
2018-02-03T01:49:30.853Z,96787.67
2018-02-03T01:51:07.774Z,96761.69
2018-02-03T01:52:44.174Z,96778.98
2018-02-03T01:54:20.504Z,96825.84
2018-02-03T01:55:56.817Z,96864.37
2018-02-03T01:57:34.432Z,96911.63
2018-02-03T01:59:11.218Z,96926.70
2018-02-03T02:00:47.597Z,96954.92
2018-02-03T02:02:24.045Z,96955.92
2018-02-03T02:04:01.834Z,96925.03
2018-02-03T02:05:38.171Z,96931.94
2018-02-03T02:07:15.024Z,96944.16
2018-02-03T02:08:51.362Z,96896.03
2018-02-03T02:10:28.188Z,96845.74
2018-02-03T02:12:04.476Z,96744.40
2018-02-03T02:13:41.762Z,96708.56
2018-02-03T02:15:18.331Z,96692.95
2018-02-03T02:16:58.403Z,96718.95
2018-02-03T02:18:41.850Z,96684.30
2018-02-03T02:20:18.495Z,96677.30
2018-02-03T02:21:56.172Z,96698.64
2018-02-03T02:23:33.901Z,96713.30
2018-02-03T02:25:10.248Z,96772.13
2018-02-03T02:26:46.725Z,96818.47
2018-02-03T02:28:23.072Z,96885.20
2018-02-03T02:29:59.854Z,96923.35
2018-02-03T02:31:36.882Z,96867.00
2018-02-03T02:33:13.625Z,96882.17
2018-02-03T02:34:49.991Z,96888.20
2018-02-03T02:36:27.711Z,96868.75
2018-02-03T02:38:04.088Z,96867.92
2018-02-03T02:39:40.511Z,96907.33
2018-02-03T02:41:16.992Z,96926.73
2018-02-03T02:42:53.592Z,96961.87
2018-02-03T02:44:29.957Z,96975.80
2018-02-03T02:46:06.316Z,96959.30
2018-02-03T02:47:42.698Z,97094.66
2018-02-03T02:49:19.433Z,97184.06
2018-02-03T02:50:56.014Z,97178.34
2018-02-03T02:52:33.026Z,97214.49
2018-02-03T02:54:09.455Z,97254.01
2018-02-03T02:55:46.289Z,97259.19
2018-02-03T02:57:26.084Z,97241.02
2018-02-03T02:59:02.518Z,97260.05
2018-02-03T03:00:39.708Z,97202.66
2018-02-03T03:02:16.789Z,97157.12
2018-02-03T03:03:53.990Z,97125.05
2018-02-03T03:05:30.321Z,97127.22
2018-02-03T03:07:06.727Z,97108.56
2018-02-03T03:08:43.354Z,97107.71
2018-02-03T03:10:19.858Z,97127.22
2018-02-03T03:11:56.230Z,97094.63
2018-02-03T03:13:33.996Z,97056.04
2018-02-03T03:15:12.384Z,96994.84
2018-02-03T03:16:48.695Z,97036.50
2018-02-03T03:18:25.604Z,97114.17
2018-02-03T03:20:02.728Z,97149.38
2018-02-03T03:21:40.110Z,97161.04
2018-02-03T03:23:16.574Z,97184.95
2018-02-03T03:24:53.112Z,97178.88
2018-02-03T03:26:30.357Z,97216.60
2018-02-03T03:28:08.390Z,97263.94
2018-02-03T03:29:45.746Z,97300.12
2018-02-03T03:31:22.191Z,97321.38
2018-02-03T03:32:58.815Z,97271.39
2018-02-03T03:34:36.378Z,97238.34
2018-02-03T03:36:12.820Z,97155.87
2018-02-03T03:37:49.242Z,97121.09
2018-02-03T03:39:25.580Z,97086.92
2018-02-03T03:41:02.293Z,96978.77
2018-02-03T03:42:38.625Z,96898.23
2018-02-03T03:44:15.043Z,96816.80
2018-02-03T03:45:51.394Z,96761.37
2018-02-03T03:47:29.094Z,96810.81
2018-02-03T03:49:05.440Z,96840.72
2018-02-03T03:50:42.068Z,96778.67
2018-02-03T03:52:19.311Z,96786.08
2018-02-03T03:53:55.901Z,96776.07
2018-02-03T03:55:32.338Z,96828.05
2018-02-03T03:57:08.654Z,96860.59
2018-02-03T03:58:45.018Z,96893.43
2018-02-03T04:00:22.872Z,96952.86
2018-02-03T04:01:59.245Z,96978.37
2018-02-03T04:04:18.832Z,96841.47
2018-02-03T04:05:57.378Z,96702.06
2018-02-03T04:07:33.836Z,96669.61
2018-02-03T04:09:10.160Z,96662.67
2018-02-03T04:10:47.287Z,96667.02
2018-02-03T04:12:24.843Z,96580.39
2018-02-03T04:14:02.894Z,96532.09
2018-02-03T04:15:39.297Z,96526.02
2018-02-03T04:17:16.430Z,96540.23
2018-02-03T04:18:53.292Z,96566.67
2018-02-03T04:20:29.720Z,96550.61
2018-02-03T04:22:06.045Z,96560.59
2018-02-03T04:23:42.894Z,96615.48
2018-02-03T04:25:19.680Z,96683.88
2018-02-03T04:26:56.098Z,96716.36
2018-02-03T04:28:32.383Z,96744.90
2018-02-03T04:30:08.862Z,96803.34
2018-02-03T04:31:45.960Z,96835.38
2018-02-03T04:33:23.090Z,96898.20
2018-02-03T04:34:59.429Z,96980.61
2018-02-03T04:36:35.709Z,97038.75
2018-02-03T04:38:12.710Z,97044.24
2018-02-03T04:39:49.061Z,97038.25
2018-02-03T04:41:25.599Z,97048.16
2018-02-03T04:43:02.071Z,97037.89
2018-02-03T04:44:38.810Z,96968.36
2018-02-03T04:46:15.848Z,96954.17
2018-02-03T04:47:53.145Z,96932.37
2018-02-03T04:49:29.569Z,96942.84
2018-02-03T04:51:05.917Z,96939.31
2018-02-03T04:52:44.508Z,96949.33
2018-02-03T04:54:21.717Z,96913.80
2018-02-03T04:55:58.432Z,96896.45
2018-02-03T04:57:35.120Z,96926.81
2018-02-03T04:59:11.460Z,96918.55
2018-02-03T05:00:47.958Z,96909.46
2018-02-03T05:02:24.737Z,96904.27
2018-02-03T05:04:01.192Z,96882.67
2018-02-03T05:05:38.369Z,96883.88
2018-02-03T05:07:14.641Z,96897.81
2018-02-03T05:08:53.411Z,96931.55
2018-02-03T05:10:29.957Z,96985.35
2018-02-03T05:12:06.236Z,97056.89
2018-02-03T05:13:42.677Z,97066.03
2018-02-03T05:15:19.469Z,97072.91
2018-02-03T05:16:55.775Z,97105.97
2018-02-03T05:18:32.080Z,97141.95
2018-02-03T05:20:08.854Z,96985.78
2018-02-03T05:21:45.456Z,96905.25
2018-02-03T05:23:22.618Z,96852.83
2018-02-03T05:24:59.049Z,96759.23
2018-02-03T05:26:35.756Z,96846.35
2018-02-03T05:28:12.153Z,97038.75
2018-02-03T05:29:48.516Z,97151.98
2018-02-03T05:31:25.867Z,97247.08
2018-02-03T05:33:02.637Z,97278.75
2018-02-03T05:34:39.116Z,97343.56
2018-02-03T05:36:15.427Z,97351.70
2018-02-03T05:37:51.905Z,97283.13
2018-02-03T05:39:28.481Z,97238.38
2018-02-03T05:41:04.968Z,97251.04
2018-02-03T05:42:41.456Z,97257.47
2018-02-03T05:44:18.983Z,97290.09
2018-02-03T05:45:55.366Z,97340.95
2018-02-03T05:47:31.846Z,97253.68
2018-02-03T05:49:08.213Z,97276.67
2018-02-03T05:50:45.731Z,97346.49
2018-02-03T05:52:22.071Z,97385.21
2018-02-03T05:53:58.567Z,97452.64
2018-02-03T05:55:35.836Z,97450.03
2018-02-03T05:57:12.396Z,97406.14
2018-02-03T05:58:48.725Z,97252.33
2018-02-03T06:00:25.136Z,97163.78
2018-02-03T06:02:01.511Z,97071.37
2018-02-03T06:03:38.544Z,97222.34
2018-02-03T06:05:14.967Z,97311.81
2018-02-03T06:06:51.289Z,97352.66
2018-02-03T06:08:28.176Z,97286.60
2018-02-03T06:10:04.563Z,97151.58
2018-02-03T06:11:41.663Z,97123.83
2018-02-03T06:13:17.943Z,97160.33
2018-02-03T06:14:54.717Z,97292.80
2018-02-03T06:16:31.097Z,97400.96
2018-02-03T06:18:07.436Z,97355.67
2018-02-03T06:19:43.754Z,97287.13
2018-02-03T06:21:21.161Z,97384.39
2018-02-03T06:22:57.537Z,97400.96
2018-02-03T06:24:33.988Z,97233.63
2018-02-03T06:26:10.873Z,97315.80
2018-02-03T06:27:47.160Z,97357.88
2018-02-03T06:29:25.637Z,97317.87
2018-02-03T06:31:02.171Z,97296.63
2018-02-03T06:32:38.889Z,97255.39
2018-02-03T06:34:15.262Z,97329.23
2018-02-03T06:35:51.596Z,97337.42
2018-02-03T06:37:28.896Z,97176.77
2018-02-03T06:39:07.245Z,97053.51
2018-02-03T06:40:43.562Z,96943.80
2018-02-03T06:42:19.827Z,96822.14
2018-02-03T06:43:56.156Z,96869.31
2018-02-03T06:45:32.937Z,96993.69
2018-02-03T06:47:10.168Z,97013.16
2018-02-03T06:48:46.472Z,97167.25
2018-02-03T06:50:23.033Z,97228.05
2018-02-03T06:51:59.389Z,97169.39
2018-02-03T06:53:35.762Z,97278.45
2018-02-03T06:55:12.167Z,97381.42
2018-02-03T06:56:49.674Z,97311.84
2018-02-03T06:58:26.833Z,97108.21
2018-02-03T07:00:05.104Z,97175.02
2018-02-03T07:01:41.448Z,97232.38
2018-02-03T07:03:17.994Z,97146.41
2018-02-03T07:04:54.537Z,97043.13
2018-02-03T07:06:31.110Z,97086.09
2018-02-03T07:08:08.332Z,97143.73
2018-02-03T07:09:45.835Z,97291.45
2018-02-03T07:11:22.253Z,97360.88
2018-02-03T07:12:58.925Z,97344.02
2018-02-03T07:14:35.416Z,97377.45
2018-02-03T07:16:11.770Z,97447.88
2018-02-03T07:17:48.509Z,97459.11
2018-02-03T07:19:25.913Z,97346.13
2018-02-03T07:21:03.158Z,97372.23
2018-02-03T07:22:40.219Z,97409.71
2018-02-03T07:24:16.761Z,97442.66
2018-02-03T07:25:53.144Z,97414.89
2018-02-03T07:27:29.625Z,97321.88
2018-02-03T07:29:06.417Z,97366.20
2018-02-03T07:30:42.822Z,97377.13
2018-02-03T07:32:19.225Z,97334.95
2018-02-03T07:33:55.677Z,97230.23
2018-02-03T07:35:32.612Z,97364.42
2018-02-03T07:37:09.701Z,97423.15
2018-02-03T07:38:46.847Z,97474.44
2018-02-03T07:40:26.837Z,97493.99
2018-02-03T07:42:03.782Z,97532.78
2018-02-03T07:43:40.106Z,97567.97
2018-02-03T07:45:16.895Z,97505.48
2018-02-03T07:46:53.293Z,97433.13
2018-02-03T07:48:29.738Z,97399.34
2018-02-03T07:50:06.419Z,97303.23
2018-02-03T07:51:44.615Z,97363.16
2018-02-03T07:53:21.298Z,97337.98
2018-02-03T07:54:58.437Z,97219.37
2018-02-03T07:56:34.972Z,97066.63
2018-02-03T07:58:11.448Z,97039.21
2018-02-03T08:01:36.690Z,97139.42
2018-02-03T08:03:13.108Z,97237.98
2018-02-03T08:04:50.685Z,97347.55
2018-02-03T08:06:27.996Z,97314.05
2018-02-03T08:08:05.179Z,97179.84
2018-02-03T08:09:42.469Z,97275.39
2018-02-03T08:11:19.035Z,97093.91
2018-02-03T08:12:55.872Z,97091.30
2018-02-03T08:14:33.253Z,97015.36
2018-02-03T08:16:09.631Z,96907.00
2018-02-03T08:17:46.781Z,96901.88
2018-02-03T08:19:23.663Z,96966.39
2018-02-03T08:21:00.152Z,97088.30
2018-02-03T08:22:36.973Z,97252.39
2018-02-03T08:24:14.245Z,97383.95
2018-02-03T08:25:51.513Z,97326.59
2018-02-03T08:27:28.849Z,97286.23
2018-02-03T08:29:05.622Z,97318.80
2018-02-03T08:30:42.068Z,97367.06
2018-02-03T08:32:18.836Z,97346.13
2018-02-03T08:33:55.533Z,97347.95
2018-02-03T08:35:33.106Z,97410.53
2018-02-03T08:37:10.246Z,97300.20
2018-02-03T08:38:47.424Z,97293.59
2018-02-03T08:40:24.744Z,97401.85
2018-02-03T08:42:02.959Z,97444.34
2018-02-03T08:43:39.607Z,97490.48
2018-02-03T08:45:17.806Z,97559.34
2018-02-03T08:46:54.279Z,97478.30
2018-02-03T08:48:30.741Z,97312.70
2018-02-03T08:50:07.104Z,97307.95
2018-02-03T08:51:43.998Z,97446.59
2018-02-03T08:53:20.453Z,97542.69
2018-02-03T08:55:00.735Z,97599.67
2018-02-03T08:56:37.656Z,97539.19
2018-02-03T08:58:14.460Z,97577.56
2018-02-03T08:59:51.799Z,97512.69
2018-02-03T09:01:28.877Z,97577.00
2018-02-03T09:03:05.471Z,97513.19
2018-02-03T09:04:43.429Z,97500.96
2018-02-03T09:06:19.946Z,97456.11
2018-02-03T09:07:56.499Z,97390.06
2018-02-03T09:09:33.137Z,97426.22
2018-02-03T09:11:10.356Z,97558.02
2018-02-03T09:12:47.559Z,97580.10
2018-02-03T09:14:24.121Z,97498.38
2018-02-03T09:16:02.032Z,97348.87
2018-02-03T09:17:39.825Z,97337.48
2018-02-03T09:19:16.998Z,97390.06
2018-02-03T09:20:53.659Z,97535.36
2018-02-03T09:22:31.100Z,97437.02
2018-02-03T09:24:09.020Z,97304.55
2018-02-03T09:25:46.024Z,97384.35
2018-02-03T09:27:22.438Z,97426.98
2018-02-03T09:28:58.981Z,97477.44
2018-02-03T09:30:35.938Z,97549.23
2018-02-03T09:32:14.277Z,97557.00
2018-02-03T09:33:51.427Z,97488.77
2018-02-03T09:35:27.927Z,97380.06
2018-02-03T09:37:06.497Z,97467.44
2018-02-03T09:38:43.109Z,97447.95
2018-02-03T09:40:20.722Z,97519.70
2018-02-03T09:41:58.623Z,97509.66
2018-02-03T09:43:35.750Z,97530.56
2018-02-03T09:45:15.033Z,97547.98
2018-02-03T09:46:51.591Z,97481.34
2018-02-03T09:48:28.253Z,97383.98
2018-02-03T09:50:05.070Z,97464.83
2018-02-03T09:51:43.108Z,97510.48
2018-02-03T09:53:19.583Z,97561.39
2018-02-03T09:54:56.001Z,97600.99
2018-02-03T09:56:32.961Z,97485.67
2018-02-03T09:58:10.714Z,97591.91
2018-02-03T09:59:47.909Z,97582.72
2018-02-03T10:01:24.296Z,97664.61
2018-02-03T10:03:01.579Z,97678.03
2018-02-03T10:04:38.799Z,97611.50
2018-02-03T10:06:15.270Z,97628.00
2018-02-03T10:07:51.968Z,97684.15
2018-02-03T10:09:29.605Z,97744.28
2018-02-03T10:11:06.658Z,97824.04
2018-02-03T10:12:43.068Z,97838.84
2018-02-03T10:14:19.468Z,97867.64
2018-02-03T10:15:56.207Z,97692.88
2018-02-03T10:17:33.376Z,97571.88
2018-02-03T10:19:09.708Z,97734.75
2018-02-03T10:20:46.393Z,97794.84
2018-02-03T10:22:24.188Z,97707.27
2018-02-03T10:24:00.584Z,97558.78
2018-02-03T10:25:37.126Z,97623.27
2018-02-03T10:27:14.167Z,97702.05
2018-02-03T10:28:50.925Z,97848.44
2018-02-03T10:32:12.586Z,97956.09
2018-02-03T10:33:49.423Z,97986.19
2018-02-03T10:35:26.312Z,97928.14
2018-02-03T10:37:03.000Z,97927.71
2018-02-03T10:38:39.454Z,97926.84
2018-02-03T10:40:19.969Z,97870.22
2018-02-03T10:41:57.356Z,97836.65
2018-02-03T10:43:35.337Z,97843.61
2018-02-03T10:45:11.881Z,97790.38
2018-02-03T10:46:49.099Z,97703.33
2018-02-03T10:48:26.123Z,97705.98
2018-02-03T10:50:02.731Z,97727.71
2018-02-03T10:51:40.784Z,97690.66
2018-02-03T10:53:17.437Z,97673.77
2018-02-03T10:54:54.192Z,97639.73
2018-02-03T10:56:30.606Z,97595.38
2018-02-03T10:58:08.534Z,97558.81
2018-02-03T10:59:45.050Z,97372.14
2018-02-03T11:01:23.245Z,97329.23
2018-02-03T11:03:00.160Z,97225.41
2018-02-03T11:04:36.541Z,97334.48
2018-02-03T11:06:13.964Z,97424.53
2018-02-03T11:07:50.924Z,97567.55
2018-02-03T11:09:28.450Z,97619.73
2018-02-03T11:11:05.874Z,97527.55
2018-02-03T11:12:44.406Z,97646.34
2018-02-03T11:14:22.019Z,97786.94
2018-02-03T11:15:58.588Z,97861.94
2018-02-03T11:17:35.760Z,97847.97
2018-02-03T11:19:13.120Z,97728.60
2018-02-03T11:20:52.121Z,97797.42
2018-02-03T11:22:28.498Z,97858.00
2018-02-03T11:24:04.937Z,97860.16
2018-02-03T11:25:41.777Z,97824.44
2018-02-03T11:27:18.741Z,97761.69
2018-02-03T11:28:55.320Z,97705.95
2018-02-03T11:30:35.261Z,97730.39
2018-02-03T11:32:12.070Z,97782.63
2018-02-03T11:33:50.094Z,97759.53
2018-02-03T11:35:26.606Z,97561.39
2018-02-03T11:37:03.124Z,97499.21
2018-02-03T11:38:41.710Z,97457.95
2018-02-03T11:40:18.896Z,97621.95
2018-02-03T11:41:55.791Z,97665.89
2018-02-03T11:43:33.001Z,97652.77
2018-02-03T11:45:10.388Z,97613.63
2018-02-03T11:46:47.015Z,97601.82
2018-02-03T11:48:24.142Z,97501.78
2018-02-03T11:50:00.878Z,97419.61
2018-02-03T11:51:37.588Z,97486.95
2018-02-03T11:53:14.252Z,97587.54
2018-02-03T11:54:54.527Z,97652.83
2018-02-03T11:56:33.116Z,97672.41
2018-02-03T11:58:10.022Z,97748.19
2018-02-03T11:59:47.786Z,97736.44
2018-02-03T12:01:26.397Z,97872.80
2018-02-03T12:03:12.740Z,97846.19
2018-02-03T12:04:50.389Z,97783.00
2018-02-03T12:06:28.054Z,97756.39
2018-02-03T12:08:04.760Z,97756.39
2018-02-03T12:09:41.344Z,97794.28
2018-02-03T12:11:18.391Z,97836.59
2018-02-03T12:12:55.537Z,97890.66
2018-02-03T12:14:31.886Z,97935.56
2018-02-03T12:16:08.201Z,97944.24
2018-02-03T12:17:45.821Z,97918.08
2018-02-03T12:19:22.096Z,97914.56
2018-02-03T12:20:58.544Z,97836.19
2018-02-03T12:22:35.655Z,97788.27
2018-02-03T12:24:13.466Z,97867.97
2018-02-03T12:25:58.213Z,97841.88
2018-02-03T12:27:35.007Z,97766.48
2018-02-03T12:29:11.419Z,97761.69
2018-02-03T12:30:49.081Z,97554.42
2018-02-03T12:32:26.432Z,97468.72
2018-02-03T12:34:05.405Z,97546.23
2018-02-03T12:35:43.595Z,97647.67
2018-02-03T12:37:20.807Z,97705.48
2018-02-03T12:38:57.437Z,97833.14
2018-02-03T12:40:35.057Z,97808.72
2018-02-03T12:43:53.125Z,97637.98
2018-02-03T12:45:36.730Z,97680.25
2018-02-03T12:47:13.640Z,97758.15
2018-02-03T12:48:50.281Z,97758.98
2018-02-03T12:50:27.646Z,97702.41
2018-02-03T12:52:04.988Z,97676.22
2018-02-03T12:53:43.496Z,97695.03
2018-02-03T12:55:20.092Z,97755.57
2018-02-03T12:56:57.188Z,97720.27
2018-02-03T12:58:34.515Z,97735.88
2018-02-03T13:00:12.111Z,97727.68
2018-02-03T13:01:50.512Z,97686.23
2018-02-03T13:03:29.787Z,97701.55
2018-02-03T13:05:06.230Z,97647.97
2018-02-03T13:06:43.193Z,97577.06
2018-02-03T13:08:19.556Z,97683.69
2018-02-03T13:09:56.299Z,97677.60
2018-02-03T13:11:32.790Z,97758.58
2018-02-03T13:13:10.065Z,97874.92
2018-02-03T13:14:46.686Z,97925.92
2018-02-03T13:16:23.532Z,97881.87
2018-02-03T13:18:00.901Z,97854.00
2018-02-03T13:19:37.750Z,97888.44
2018-02-03T13:21:14.244Z,97805.94
2018-02-03T13:22:50.732Z,97727.22
2018-02-03T13:24:27.323Z,97545.30
2018-02-03T13:26:04.112Z,97582.28
2018-02-03T13:27:41.276Z,97682.39
2018-02-03T13:29:17.764Z,97689.77
2018-02-03T13:30:54.360Z,97806.09
2018-02-03T13:32:31.399Z,97659.28
2018-02-03T13:34:09.011Z,97637.09
2018-02-03T13:35:46.200Z,97726.85
2018-02-03T13:37:22.743Z,97844.80
2018-02-03T13:39:00.381Z,97872.74
2018-02-03T13:40:37.052Z,97746.38
2018-02-03T13:42:13.520Z,97607.04
2018-02-03T13:43:50.499Z,97602.19
2018-02-03T13:45:31.525Z,97643.14
2018-02-03T13:47:08.010Z,97596.89
2018-02-03T13:48:46.716Z,97429.98
2018-02-03T13:50:23.281Z,97512.23
2018-02-03T13:52:00.480Z,97487.39
2018-02-03T13:53:36.894Z,97571.73
2018-02-03T13:55:13.283Z,97664.84
2018-02-03T13:56:49.735Z,97617.42
2018-02-03T13:58:29.084Z,97555.67
2018-02-03T14:00:06.893Z,97523.06
2018-02-03T14:01:44.789Z,97491.68
2018-02-03T14:03:21.157Z,97443.42
2018-02-03T14:05:00.012Z,97439.89
2018-02-03T14:06:37.530Z,97276.97
2018-02-03T14:08:26.588Z,97229.17
2018-02-03T14:10:03.145Z,97230.48
2018-02-03T14:11:47.892Z,97300.00
2018-02-03T14:13:24.282Z,97388.58
2018-02-03T14:15:10.215Z,97443.85
2018-02-03T14:16:51.879Z,97389.94
2018-02-03T14:18:28.326Z,97369.43
2018-02-03T14:20:56.583Z,97377.65
2018-02-03T14:22:33.784Z,97258.69
2018-02-03T14:24:21.325Z,97193.98
2018-02-03T14:26:11.809Z,97180.03
2018-02-03T14:27:48.810Z,97157.41
2018-02-03T14:29:25.403Z,97293.39
2018-02-03T14:31:02.277Z,97367.72
2018-02-03T14:32:39.634Z,97382.14
2018-02-03T14:34:16.606Z,97516.45
2018-02-03T14:35:53.796Z,97561.73
2018-02-03T14:37:31.277Z,97645.23
2018-02-03T14:39:08.073Z,97696.16
2018-02-03T14:40:45.120Z,97746.67
2018-02-03T14:42:22.081Z,97764.57
2018-02-03T14:44:00.437Z,97737.61
2018-02-03T14:45:37.295Z,97625.20
2018-02-03T14:47:14.515Z,97542.62
2018-02-03T14:48:52.118Z,97682.27
2018-02-03T14:50:28.935Z,97825.62
2018-02-03T14:52:05.413Z,97907.55
2018-02-03T14:53:42.636Z,97966.84
2018-02-03T14:55:19.270Z,97935.87
2018-02-03T14:56:55.811Z,97897.08
2018-02-03T14:58:32.412Z,97913.61
2018-02-03T15:00:11.400Z,97942.89
2018-02-03T15:01:48.210Z,98056.74
2018-02-03T15:03:24.788Z,98030.16
2018-02-03T15:05:01.440Z,98005.77
2018-02-03T15:06:38.542Z,98102.66
2018-02-03T15:08:16.274Z,98142.75
2018-02-03T15:09:52.927Z,98024.86
2018-02-03T15:11:29.544Z,97875.30
2018-02-03T15:13:06.436Z,97870.00
2018-02-03T15:14:42.861Z,97959.39
2018-02-03T15:16:19.899Z,97997.05
2018-02-03T15:17:56.454Z,98115.72
2018-02-03T15:19:33.454Z,98158.45
2018-02-03T15:21:10.113Z,97930.14
2018-02-03T15:22:47.773Z,97901.45
2018-02-03T15:24:25.015Z,97958.19
2018-02-03T15:26:02.675Z,98001.36
2018-02-03T15:27:40.457Z,97910.99
2018-02-03T15:29:16.872Z,97973.43
2018-02-03T15:30:56.366Z,98011.40
2018-02-03T15:32:33.377Z,97948.55
2018-02-03T15:34:10.412Z,97948.06
2018-02-03T15:35:46.796Z,98048.95
2018-02-03T15:37:23.238Z,98019.26
2018-02-03T15:38:59.739Z,97995.66
2018-02-03T15:40:36.989Z,98010.51
2018-02-03T15:42:14.566Z,98033.61
2018-02-03T15:43:55.302Z,98054.12
2018-02-03T15:45:33.116Z,97909.70
2018-02-03T15:47:10.268Z,97675.75
2018-02-03T15:48:47.488Z,97647.02
2018-02-03T15:50:23.884Z,97571.25
2018-02-03T15:52:00.924Z,97623.05
2018-02-03T15:53:39.160Z,97729.70
2018-02-03T15:55:16.532Z,97881.72
2018-02-03T15:56:53.140Z,97951.51
2018-02-03T15:58:30.046Z,97942.36
2018-02-03T16:00:07.320Z,97910.96
2018-02-03T16:01:44.248Z,97868.21
2018-02-03T16:03:21.598Z,97776.81
2018-02-03T16:04:58.426Z,97824.28
2018-02-03T16:06:34.909Z,97834.34
2018-02-03T16:08:13.664Z,97808.09
2018-02-03T16:09:51.567Z,97725.33
2018-02-03T16:11:31.133Z,97788.10
2018-02-03T16:13:13.811Z,97894.83
2018-02-03T16:14:52.016Z,97956.31
2018-02-03T16:16:28.852Z,97903.48
2018-02-03T16:18:05.888Z,97817.62
2018-02-03T16:19:43.171Z,97854.83
2018-02-03T16:21:19.803Z,97920.17
2018-02-03T16:22:56.617Z,97912.22
2018-02-03T16:24:33.273Z,97859.94
2018-02-03T16:27:50.157Z,97681.77
2018-02-03T16:29:27.659Z,97565.59
2018-02-03T16:31:04.322Z,97567.78
2018-02-03T16:32:40.792Z,97463.34
2018-02-03T16:34:17.212Z,97489.50
2018-02-03T16:35:56.500Z,97582.19
2018-02-03T16:37:33.301Z,97576.89
2018-02-03T16:39:13.416Z,97715.77
2018-02-03T16:40:51.976Z,97839.50
2018-02-03T16:42:28.688Z,97833.88
2018-02-03T16:44:06.002Z,97810.31
2018-02-03T16:45:43.064Z,97939.75
2018-02-03T16:47:19.477Z,97829.05
2018-02-03T16:48:56.361Z,97675.29
2018-02-03T16:50:32.879Z,97782.41
2018-02-03T16:52:09.566Z,97810.28
2018-02-03T16:53:45.954Z,97765.34
2018-02-03T16:55:23.704Z,97619.08
2018-02-03T16:57:00.642Z,97693.15
2018-02-03T16:58:37.947Z,97740.16
2018-02-03T17:00:16.052Z,97850.77
2018-02-03T17:01:53.199Z,97954.55
2018-02-03T17:03:29.685Z,97879.17
2018-02-03T17:05:06.273Z,97713.13
2018-02-03T17:06:42.939Z,97621.69
2018-02-03T17:08:19.948Z,97640.01
2018-02-03T17:09:56.912Z,97785.45
2018-02-03T17:11:33.313Z,97845.94
2018-02-03T17:13:09.802Z,97831.96
2018-02-03T17:14:46.523Z,97643.88
2018-02-03T17:16:23.206Z,97488.14
2018-02-03T17:17:59.706Z,97590.34
2018-02-03T17:19:36.344Z,97697.88
2018-02-03T17:21:13.691Z,97736.62
2018-02-03T17:22:51.362Z,97745.31
2018-02-03T17:24:28.364Z,97814.09
2018-02-03T17:26:04.968Z,97779.27
2018-02-03T17:27:42.414Z,97769.24
2018-02-03T17:29:19.611Z,97654.69
2018-02-03T17:30:56.679Z,97497.23
2018-02-03T17:32:33.377Z,97444.55
2018-02-03T17:34:10.596Z,97395.80
2018-02-03T17:35:47.144Z,97455.91
2018-02-03T17:37:27.997Z,97433.28
2018-02-03T17:39:04.624Z,97474.20
2018-02-03T17:40:41.811Z,97621.23
2018-02-03T17:42:19.511Z,97741.38
2018-02-03T17:43:56.467Z,97657.34
2018-02-03T17:45:39.369Z,97675.59
2018-02-03T17:47:15.953Z,97758.42
2018-02-03T17:48:53.114Z,97804.55
2018-02-03T17:50:32.738Z,97872.48
2018-02-03T17:52:11.768Z,97901.70
2018-02-03T17:53:48.395Z,97951.02
2018-02-03T17:55:28.876Z,97960.59
2018-02-03T17:57:10.317Z,97974.05
2018-02-03T17:58:47.280Z,97901.27
2018-02-03T18:00:26.575Z,97905.63
2018-02-03T18:02:04.388Z,97899.48
2018-02-03T18:03:43.244Z,97911.77
2018-02-03T18:05:21.424Z,97855.50
2018-02-03T18:07:02.803Z,97787.08
2018-02-03T18:08:42.556Z,97904.31
2018-02-03T18:10:20.640Z,97886.95
2018-02-03T18:11:57.640Z,97816.67
2018-02-03T18:13:36.178Z,97800.19
2018-02-03T18:15:13.483Z,97831.10
2018-02-03T18:16:52.728Z,97796.64
2018-02-03T18:18:32.006Z,97659.02
2018-02-03T18:20:11.590Z,97723.95
2018-02-03T18:21:51.599Z,97825.38
2018-02-03T18:23:29.365Z,97689.48
2018-02-03T18:25:08.823Z,97478.96
2018-02-03T18:26:48.921Z,97482.86
2018-02-03T18:28:31.635Z,97625.09
2018-02-03T18:30:16.270Z,97705.63
2018-02-03T18:31:55.912Z,97731.69
2018-02-03T18:33:34.319Z,97706.91
2018-02-03T18:35:13.239Z,97584.97
2018-02-03T18:36:53.003Z,97339.30
2018-02-03T18:38:33.492Z,97256.87
2018-02-03T18:40:15.634Z,97374.88
2018-02-03T18:41:56.178Z,97357.11
2018-02-03T18:43:47.121Z,97274.62
2018-02-03T18:45:51.122Z,97419.78
2018-02-03T18:47:45.254Z,97585.89
2018-02-03T18:49:33.081Z,97628.14
2018-02-03T18:51:19.600Z,97638.02
2018-02-03T18:53:09.079Z,97705.52
2018-02-03T18:54:53.880Z,97702.48
2018-02-03T18:56:36.795Z,97664.55
2018-02-03T18:58:17.855Z,97612.33
2018-02-03T18:59:56.437Z,97581.00
2018-02-03T19:01:38.260Z,97397.02
2018-02-03T19:05:05.197Z,97374.80
2018-02-03T19:06:47.767Z,97471.92
2018-02-03T19:08:26.759Z,97553.17
2018-02-03T19:10:08.641Z,97557.53
2018-02-03T19:11:50.542Z,97564.97
2018-02-03T19:13:28.775Z,97634.59
2018-02-03T19:15:07.737Z,97510.14